sensor_id;sensor_type;location;lat;lon;timestamp;pressure;altitude;pressure_sealevel;temperature;humidity
74329;BME280;62749;51.982;5.916;2023-07-29T00:02:04;100515.19;;;18.99;96.28
74329;BME280;62749;51.982;5.916;2023-07-29T00:04:33;100509.44;;;18.92;96.96
74329;BME280;62749;51.982;5.916;2023-07-29T00:07:03;100508.47;;;18.93;96.63
74329;BME280;62749;51.982;5.916;2023-07-29T00:09:33;100508.63;;;18.92;96.69
74329;BME280;62749;51.982;5.916;2023-07-29T00:12:03;100511.66;;;18.87;96.61
74329;BME280;62749;51.982;5.916;2023-07-29T00:14:35;100497.19;;;18.90;96.62
74329;BME280;62749;51.982;5.916;2023-07-29T00:17:04;100503.41;;;18.90;96.26
74329;BME280;62749;51.982;5.916;2023-07-29T00:19:34;100507.06;;;18.89;96.49
74329;BME280;62749;51.982;5.916;2023-07-29T00:22:04;100497.56;;;18.85;96.03
74329;BME280;62749;51.982;5.916;2023-07-29T00:24:35;100503.16;;;18.82;95.96
74329;BME280;62749;51.982;5.916;2023-07-29T00:27:05;100500.72;;;18.79;96.85
74329;BME280;62749;51.982;5.916;2023-07-29T00:29:37;100492.97;;;18.76;96.35
74329;BME280;62749;51.982;5.916;2023-07-29T00:32:06;100479.59;;;18.76;96.94
74329;BME280;62749;51.982;5.916;2023-07-29T00:34:35;100478.88;;;18.74;96.35
74329;BME280;62749;51.982;5.916;2023-07-29T00:37:05;100467.44;;;18.71;96.64
74329;BME280;62749;51.982;5.916;2023-07-29T00:39:34;100465.72;;;18.70;96.93
74329;BME280;62749;51.982;5.916;2023-07-29T00:42:05;100474.63;;;18.71;96.95
74329;BME280;62749;51.982;5.916;2023-07-29T00:44:37;100461.34;;;18.69;97.18
74329;BME280;62749;51.982;5.916;2023-07-29T00:47:07;100461.34;;;18.69;97.10
74329;BME280;62749;51.982;5.916;2023-07-29T00:49:36;100449.91;;;18.67;97.00
74329;BME280;62749;51.982;5.916;2023-07-29T00:52:06;100451.88;;;18.65;97.42
74329;BME280;62749;51.982;5.916;2023-07-29T00:54:38;100458.31;;;18.63;97.66
74329;BME280;62749;51.982;5.916;2023-07-29T00:57:09;100463.22;;;18.58;97.48
74329;BME280;62749;51.982;5.916;2023-07-29T00:59:42;100466.13;;;18.54;97.96
74329;BME280;62749;51.982;5.916;2023-07-29T01:02:12;100459.91;;;18.54;97.93
74329;BME280;62749;51.982;5.916;2023-07-29T01:04:42;100468.22;;;18.51;98.08
74329;BME280;62749;51.982;5.916;2023-07-29T01:07:17;100480.09;;;18.58;97.66
74329;BME280;62749;51.982;5.916;2023-07-29T01:10:07;100484.97;;;18.64;96.81
74329;BME280;62749;51.982;5.916;2023-07-29T01:12:49;100482.28;;;18.64;97.38
74329;BME280;62749;51.982;5.916;2023-07-29T01:15:29;100492.47;;;18.70;97.22
74329;BME280;62749;51.982;5.916;2023-07-29T01:18:05;100493.94;;;18.75;97.01
74329;BME280;62749;51.982;5.916;2023-07-29T01:20:38;100486.66;;;18.77;97.20
74329;BME280;62749;51.982;5.916;2023-07-29T01:23:09;100479.31;;;18.79;96.92
74329;BME280;62749;51.982;5.916;2023-07-29T01:25:41;100469.97;;;18.84;97.14
74329;BME280;62749;51.982;5.916;2023-07-29T01:28:10;100469.09;;;18.84;95.49
74329;BME280;62749;51.982;5.916;2023-07-29T01:30:43;100464.63;;;18.84;96.24
74329;BME280;62749;51.982;5.916;2023-07-29T01:33:17;100457.41;;;18.85;96.83
74329;BME280;62749;51.982;5.916;2023-07-29T01:35:52;100454.50;;;18.88;97.40
74329;BME280;62749;51.982;5.916;2023-07-29T01:38:29;100446.47;;;18.88;97.37
74329;BME280;62749;51.982;5.916;2023-07-29T01:41:07;100454.94;;;18.93;96.63
74329;BME280;62749;51.982;5.916;2023-07-29T01:43:37;100459.38;;;18.94;96.33
74329;BME280;62749;51.982;5.916;2023-07-29T01:46:10;100459.56;;;18.91;96.59
74329;BME280;62749;51.982;5.916;2023-07-29T01:48:40;100462.03;;;18.94;96.48
74329;BME280;62749;51.982;5.916;2023-07-29T01:51:12;100432.03;;;18.79;96.53
74329;BME280;62749;51.982;5.916;2023-07-29T01:53:41;100451.66;;;19.01;96.64
74329;BME280;62749;51.982;5.916;2023-07-29T01:56:13;100451.44;;;19.04;95.64
74329;BME280;62749;51.982;5.916;2023-07-29T01:58:43;100451.09;;;18.97;94.89
74329;BME280;62749;51.982;5.916;2023-07-29T02:01:12;100454.50;;;18.99;94.67
74329;BME280;62749;51.982;5.916;2023-07-29T02:03:41;100452.19;;;18.95;95.12
74329;BME280;62749;51.982;5.916;2023-07-29T02:06:11;100454.13;;;18.93;94.84
74329;BME280;62749;51.982;5.916;2023-07-29T02:08:40;100450.50;;;18.94;94.56
74329;BME280;62749;51.982;5.916;2023-07-29T02:11:09;100441.72;;;18.92;94.52
74329;BME280;62749;51.982;5.916;2023-07-29T02:13:41;100453.53;;;18.89;94.94
74329;BME280;62749;51.982;5.916;2023-07-29T02:16:11;100451.69;;;18.90;95.64
74329;BME280;62749;51.982;5.916;2023-07-29T02:18:40;100453.19;;;18.94;95.18
74329;BME280;62749;51.982;5.916;2023-07-29T02:21:09;100441.34;;;18.96;95.73
74329;BME280;62749;51.982;5.916;2023-07-29T02:23:39;100440.13;;;19.00;95.35
74329;BME280;62749;51.982;5.916;2023-07-29T02:26:08;100439.56;;;19.18;95.05
74329;BME280;62749;51.982;5.916;2023-07-29T02:28:37;100440.81;;;19.14;95.68
74329;BME280;62749;51.982;5.916;2023-07-29T02:31:15;100442.31;;;19.28;95.36
74329;BME280;62749;51.982;5.916;2023-07-29T02:33:45;100441.72;;;19.24;94.76
74329;BME280;62749;51.982;5.916;2023-07-29T02:36:16;100444.66;;;19.21;95.24
74329;BME280;62749;51.982;5.916;2023-07-29T02:38:46;100436.88;;;19.18;95.33
74329;BME280;62749;51.982;5.916;2023-07-29T02:41:15;100444.47;;;19.13;95.57
74329;BME280;62749;51.982;5.916;2023-07-29T02:43:49;100441.44;;;19.06;96.89
74329;BME280;62749;51.982;5.916;2023-07-29T02:46:21;100444.13;;;19.06;96.88
74329;BME280;62749;51.982;5.916;2023-07-29T02:48:50;100453.00;;;19.07;97.36
74329;BME280;62749;51.982;5.916;2023-07-29T02:51:20;100432.44;;;19.07;97.25
74329;BME280;62749;51.982;5.916;2023-07-29T02:53:49;100439.69;;;19.16;96.39
74329;BME280;62749;51.982;5.916;2023-07-29T02:56:19;100428.16;;;19.16;94.84
74329;BME280;62749;51.982;5.916;2023-07-29T02:58:48;100432.78;;;19.14;94.95
74329;BME280;62749;51.982;5.916;2023-07-29T03:01:21;100431.19;;;19.11;95.69
74329;BME280;62749;51.982;5.916;2023-07-29T03:03:51;100432.38;;;19.19;93.72
74329;BME280;62749;51.982;5.916;2023-07-29T03:06:20;100431.81;;;19.15;93.28
74329;BME280;62749;51.982;5.916;2023-07-29T03:08:50;100431.31;;;19.10;93.54
74329;BME280;62749;51.982;5.916;2023-07-29T03:11:19;100429.19;;;19.04;94.28
74329;BME280;62749;51.982;5.916;2023-07-29T03:13:48;100430.84;;;19.05;94.30
74329;BME280;62749;51.982;5.916;2023-07-29T03:16:20;100434.53;;;19.04;93.98
74329;BME280;62749;51.982;5.916;2023-07-29T03:18:50;100433.16;;;19.09;93.96
74329;BME280;62749;51.982;5.916;2023-07-29T03:21:19;100433.41;;;19.06;92.71
74329;BME280;62749;51.982;5.916;2023-07-29T03:23:48;100428.69;;;18.98;93.65
74329;BME280;62749;51.982;5.916;2023-07-29T03:26:18;100425.78;;;18.90;94.24
74329;BME280;62749;51.982;5.916;2023-07-29T03:28:47;100428.84;;;18.97;94.00
74329;BME280;62749;51.982;5.916;2023-07-29T03:31:16;100427.47;;;19.03;92.85
74329;BME280;62749;51.982;5.916;2023-07-29T03:33:48;100427.34;;;18.93;92.06
74329;BME280;62749;51.982;5.916;2023-07-29T03:36:18;100428.94;;;18.95;90.92
74329;BME280;62749;51.982;5.916;2023-07-29T03:38:47;100424.19;;;18.88;91.48
74329;BME280;62749;51.982;5.916;2023-07-29T03:41:16;100428.19;;;18.93;89.71
74329;BME280;62749;51.982;5.916;2023-07-29T03:43:46;100418.59;;;18.91;90.67
74329;BME280;62749;51.982;5.916;2023-07-29T03:46:15;100422.38;;;18.88;90.76
74329;BME280;62749;51.982;5.916;2023-07-29T03:48:50;100416.75;;;18.91;89.25
74329;BME280;62749;51.982;5.916;2023-07-29T03:51:20;100407.31;;;18.87;89.61
74329;BME280;62749;51.982;5.916;2023-07-29T03:53:50;100416.31;;;18.86;89.00
74329;BME280;62749;51.982;5.916;2023-07-29T03:56:20;100425.31;;;18.85;89.12
74329;BME280;62749;51.982;5.916;2023-07-29T03:58:49;100433.59;;;18.82;89.70
74329;BME280;62749;51.982;5.916;2023-07-29T04:01:18;100428.72;;;18.87;89.02
74329;BME280;62749;51.982;5.916;2023-07-29T04:03:50;100427.84;;;18.86;89.72
74329;BME280;62749;51.982;5.916;2023-07-29T04:06:21;100431.25;;;18.89;89.06
74329;BME280;62749;51.982;5.916;2023-07-29T04:08:50;100420.44;;;18.79;89.01
74329;BME280;62749;51.982;5.916;2023-07-29T04:11:20;100425.22;;;18.75;89.04
74329;BME280;62749;51.982;5.916;2023-07-29T04:13:49;100419.28;;;18.71;89.28
74329;BME280;62749;51.982;5.916;2023-07-29T04:16:19;100433.38;;;18.74;89.30
74329;BME280;62749;51.982;5.916;2023-07-29T04:18:51;100433.63;;;18.70;89.71
74329;BME280;62749;51.982;5.916;2023-07-29T04:21:20;100431.69;;;18.73;89.19
74329;BME280;62749;51.982;5.916;2023-07-29T04:23:50;100429.50;;;18.66;89.79
74329;BME280;62749;51.982;5.916;2023-07-29T04:26:19;100429.63;;;18.65;89.54
74329;BME280;62749;51.982;5.916;2023-07-29T04:28:48;100427.59;;;18.57;89.82
74329;BME280;62749;51.982;5.916;2023-07-29T04:31:18;100422.22;;;18.57;90.51
74329;BME280;62749;51.982;5.916;2023-07-29T04:33:47;100405.94;;;18.60;90.31
74329;BME280;62749;51.982;5.916;2023-07-29T04:36:19;100409.38;;;18.51;89.95
74329;BME280;62749;51.982;5.916;2023-07-29T04:38:48;100405.34;;;18.57;89.45
74329;BME280;62749;51.982;5.916;2023-07-29T04:41:18;100399.84;;;18.58;88.33
74329;BME280;62749;51.982;5.916;2023-07-29T04:43:47;100403.25;;;18.60;87.17
74329;BME280;62749;51.982;5.916;2023-07-29T04:46:16;100402.78;;;18.55;86.42
74329;BME280;62749;51.982;5.916;2023-07-29T04:48:46;100395.47;;;18.57;86.40
74329;BME280;62749;51.982;5.916;2023-07-29T04:51:15;100407.50;;;18.63;86.19
74329;BME280;62749;51.982;5.916;2023-07-29T04:53:47;100422.22;;;18.57;85.91
74329;BME280;62749;51.982;5.916;2023-07-29T04:56:16;100425.88;;;18.56;85.80
74329;BME280;62749;51.982;5.916;2023-07-29T04:58:46;100439.16;;;18.58;85.84
74329;BME280;62749;51.982;5.916;2023-07-29T05:01:15;100444.75;;;18.54;85.22
74329;BME280;62749;51.982;5.916;2023-07-29T05:03:44;100455.09;;;18.48;85.40
74329;BME280;62749;51.982;5.916;2023-07-29T05:06:14;100453.75;;;18.42;86.14
74329;BME280;62749;51.982;5.916;2023-07-29T05:08:43;100464.06;;;18.47;85.48
74329;BME280;62749;51.982;5.916;2023-07-29T05:11:15;100450.09;;;18.43;85.35
74329;BME280;62749;51.982;5.916;2023-07-29T05:13:44;100442.19;;;18.42;85.35
74329;BME280;62749;51.982;5.916;2023-07-29T05:16:14;100454.72;;;18.41;85.57
74329;BME280;62749;51.982;5.916;2023-07-29T05:18:43;100451.19;;;18.52;84.33
74329;BME280;62749;51.982;5.916;2023-07-29T05:21:12;100451.69;;;18.46;83.09
74329;BME280;62749;51.982;5.916;2023-07-29T05:23:42;100447.31;;;18.33;85.22
74329;BME280;62749;51.982;5.916;2023-07-29T05:26:11;100451.91;;;18.43;84.17
74329;BME280;62749;51.982;5.916;2023-07-29T05:28:43;100447.69;;;18.40;84.52
74329;BME280;62749;51.982;5.916;2023-07-29T05:31:12;100454.09;;;18.49;83.39
74329;BME280;62749;51.982;5.916;2023-07-29T05:33:41;100464.81;;;18.49;82.82
74329;BME280;62749;51.982;5.916;2023-07-29T05:36:11;100460.91;;;18.42;82.87
74329;BME280;62749;51.982;5.916;2023-07-29T05:38:40;100467.00;;;18.32;82.75
74329;BME280;62749;51.982;5.916;2023-07-29T05:41:09;100470.66;;;18.20;83.02
74329;BME280;62749;51.982;5.916;2023-07-29T05:43:39;100479.50;;;18.09;83.68
74329;BME280;62749;51.982;5.916;2023-07-29T05:46:12;100473.56;;;18.17;83.22
74329;BME280;62749;51.982;5.916;2023-07-29T05:48:41;100473.47;;;18.18;83.04
74329;BME280;62749;51.982;5.916;2023-07-29T05:51:11;100471.50;;;18.20;83.10
74329;BME280;62749;51.982;5.916;2023-07-29T05:53:40;100476.97;;;18.19;83.25
74329;BME280;62749;51.982;5.916;2023-07-29T05:56:09;100475.78;;;18.23;83.37
74329;BME280;62749;51.982;5.916;2023-07-29T05:58:39;100481.59;;;18.28;83.23
74329;BME280;62749;51.982;5.916;2023-07-29T06:01:08;100482.56;;;18.27;83.37
74329;BME280;62749;51.982;5.916;2023-07-29T06:03:41;100484.25;;;18.17;83.31
74329;BME280;62749;51.982;5.916;2023-07-29T06:06:10;100469.69;;;18.21;83.87
74329;BME280;62749;51.982;5.916;2023-07-29T06:08:39;100476.59;;;18.23;83.59
74329;BME280;62749;51.982;5.916;2023-07-29T06:11:09;100469.69;;;18.21;83.83
74329;BME280;62749;51.982;5.916;2023-07-29T06:13:38;100479.19;;;18.25;83.56
74329;BME280;62749;51.982;5.916;2023-07-29T06:16:10;100484.03;;;18.31;83.28
74329;BME280;62749;51.982;5.916;2023-07-29T06:18:42;100480.59;;;18.40;83.38
74329;BME280;62749;51.982;5.916;2023-07-29T06:21:11;100472.72;;;18.39;83.52
74329;BME280;62749;51.982;5.916;2023-07-29T06:23:43;100476.25;;;18.39;83.36
74329;BME280;62749;51.982;5.916;2023-07-29T06:26:13;100490.81;;;18.47;84.09
74329;BME280;62749;51.982;5.916;2023-07-29T06:28:42;100483.28;;;18.52;83.15
74329;BME280;62749;51.982;5.916;2023-07-29T06:31:11;100474.88;;;18.57;83.26
74329;BME280;62749;51.982;5.916;2023-07-29T06:33:43;100471.59;;;18.64;82.47
74329;BME280;62749;51.982;5.916;2023-07-29T06:36:13;100478.13;;;18.71;82.53
74329;BME280;62749;51.982;5.916;2023-07-29T06:38:42;100475.69;;;18.68;82.62
74329;BME280;62749;51.982;5.916;2023-07-29T06:41:11;100477.41;;;18.69;82.41
74329;BME280;62749;51.982;5.916;2023-07-29T06:43:41;100480.56;;;18.75;82.49
74329;BME280;62749;51.982;5.916;2023-07-29T06:46:10;100476.06;;;18.75;82.27
74329;BME280;62749;51.982;5.916;2023-07-29T06:48:40;100480.44;;;18.76;82.19
74329;BME280;62749;51.982;5.916;2023-07-29T06:51:11;100483.06;;;18.88;83.21
74329;BME280;62749;51.982;5.916;2023-07-29T06:53:41;100488.56;;;18.97;81.88
74329;BME280;62749;51.982;5.916;2023-07-29T06:56:10;100476.69;;;19.11;81.37
74329;BME280;62749;51.982;5.916;2023-07-29T06:58:39;100482.53;;;19.16;80.99
74329;BME280;62749;51.982;5.916;2023-07-29T07:01:09;100481.69;;;19.16;81.60
74329;BME280;62749;51.982;5.916;2023-07-29T07:03:38;100486.31;;;19.14;80.50
74329;BME280;62749;51.982;5.916;2023-07-29T07:06:08;100490.94;;;19.12;81.47
74329;BME280;62749;51.982;5.916;2023-07-29T07:08:39;100479.84;;;19.16;81.70
74329;BME280;62749;51.982;5.916;2023-07-29T07:11:10;100485.50;;;19.35;80.59
74329;BME280;62749;51.982;5.916;2023-07-29T07:13:39;100487.06;;;19.37;80.37
74329;BME280;62749;51.982;5.916;2023-07-29T07:16:09;100485.25;;;19.38;80.30
74329;BME280;62749;51.982;5.916;2023-07-29T07:18:38;100483.53;;;19.37;80.07
74329;BME280;62749;51.982;5.916;2023-07-29T07:21:07;100488.50;;;19.41;80.74
74329;BME280;62749;51.982;5.916;2023-07-29T07:23:41;100483.72;;;19.45;81.17
74329;BME280;62749;51.982;5.916;2023-07-29T07:26:10;100492.72;;;19.55;80.39
74329;BME280;62749;51.982;5.916;2023-07-29T07:28:39;100497.91;;;19.57;79.17
74329;BME280;62749;51.982;5.916;2023-07-29T07:31:09;100494.53;;;19.55;79.72
74329;BME280;62749;51.982;5.916;2023-07-29T07:33:38;100510.53;;;19.66;80.02
74329;BME280;62749;51.982;5.916;2023-07-29T07:36:07;100504.34;;;19.66;81.30
74329;BME280;62749;51.982;5.916;2023-07-29T07:38:37;100498.19;;;19.75;79.20
74329;BME280;62749;51.982;5.916;2023-07-29T07:41:09;100492.81;;;19.75;79.53
74329;BME280;62749;51.982;5.916;2023-07-29T07:43:38;100510.78;;;19.84;79.37
74329;BME280;62749;51.982;5.916;2023-07-29T07:46:08;100511.75;;;19.83;78.71
74329;BME280;62749;51.982;5.916;2023-07-29T07:48:38;100508.25;;;19.83;79.49
74329;BME280;62749;51.982;5.916;2023-07-29T07:51:11;100499.63;;;19.79;78.97
74329;BME280;62749;51.982;5.916;2023-07-29T07:53:41;100510.78;;;19.63;80.39
74329;BME280;62749;51.982;5.916;2023-07-29T07:56:13;100505.81;;;19.58;80.87
74329;BME280;62749;51.982;5.916;2023-07-29T07:58:42;100501.31;;;19.80;79.87
74329;BME280;62749;51.982;5.916;2023-07-29T08:01:12;100501.13;;;19.72;79.46
74329;BME280;62749;51.982;5.916;2023-07-29T08:03:41;100501.59;;;19.77;80.46
74329;BME280;62749;51.982;5.916;2023-07-29T08:06:10;100509.56;;;19.88;79.63
74329;BME280;62749;51.982;5.916;2023-07-29T08:08:40;100510.19;;;19.81;80.00
74329;BME280;62749;51.982;5.916;2023-07-29T08:11:09;100517.78;;;19.75;79.71
74329;BME280;62749;51.982;5.916;2023-07-29T08:13:41;100522.88;;;19.57;79.72
74329;BME280;62749;51.982;5.916;2023-07-29T08:16:10;100515.44;;;19.61;79.68
74329;BME280;62749;51.982;5.916;2023-07-29T08:18:40;100517.44;;;19.69;80.23
74329;BME280;62749;51.982;5.916;2023-07-29T08:21:09;100523.34;;;19.84;81.00
74329;BME280;62749;51.982;5.916;2023-07-29T08:23:39;100519.75;;;19.95;81.35
74329;BME280;62749;51.982;5.916;2023-07-29T08:26:08;100517.34;;;20.13;79.12
74329;BME280;62749;51.982;5.916;2023-07-29T08:28:41;100518.75;;;20.17;79.59
74329;BME280;62749;51.982;5.916;2023-07-29T08:31:10;100525.06;;;20.06;81.08
74329;BME280;62749;51.982;5.916;2023-07-29T08:33:40;100518.91;;;20.15;78.95
74329;BME280;62749;51.982;5.916;2023-07-29T08:36:09;100524.09;;;20.07;78.59
74329;BME280;62749;51.982;5.916;2023-07-29T08:38:38;100524.88;;;19.98;79.07
74329;BME280;62749;51.982;5.916;2023-07-29T08:41:13;100523.47;;;19.82;79.11
74329;BME280;62749;51.982;5.916;2023-07-29T08:43:52;100529.31;;;19.87;80.76
74329;BME280;62749;51.982;5.916;2023-07-29T08:46:25;100520.75;;;19.93;79.50
74329;BME280;62749;51.982;5.916;2023-07-29T08:48:55;100531.41;;;20.05;80.04
74329;BME280;62749;51.982;5.916;2023-07-29T08:51:26;100529.88;;;20.12;78.76
74329;BME280;62749;51.982;5.916;2023-07-29T08:53:56;100536.81;;;20.15;77.90
74329;BME280;62749;51.982;5.916;2023-07-29T08:56:28;100529.28;;;20.30;77.83
74329;BME280;62749;51.982;5.916;2023-07-29T08:59:00;100517.31;;;20.44;77.74
74329;BME280;62749;51.982;5.916;2023-07-29T09:01:31;100525.97;;;20.57;76.48
74329;BME280;62749;51.982;5.916;2023-07-29T09:04:00;100522.09;;;20.71;76.84
74329;BME280;62749;51.982;5.916;2023-07-29T09:06:30;100520.03;;;20.53;75.01
74329;BME280;62749;51.982;5.916;2023-07-29T09:09:01;100519.75;;;20.47;75.00
74329;BME280;62749;51.982;5.916;2023-07-29T09:11:33;100527.38;;;20.51;74.42
74329;BME280;62749;51.982;5.916;2023-07-29T09:14:05;100525.16;;;20.57;74.46
74329;BME280;62749;51.982;5.916;2023-07-29T09:16:34;100530.38;;;20.58;74.34
74329;BME280;62749;51.982;5.916;2023-07-29T09:19:04;100518.31;;;20.43;74.32
74329;BME280;62749;51.982;5.916;2023-07-29T09:21:34;100527.22;;;20.43;73.81
74329;BME280;62749;51.982;5.916;2023-07-29T09:24:07;100519.38;;;20.30;75.34
74329;BME280;62749;51.982;5.916;2023-07-29T09:26:40;100528.47;;;20.39;74.32
74329;BME280;62749;51.982;5.916;2023-07-29T09:29:23;100520.00;;;20.44;74.24
74329;BME280;62749;51.982;5.916;2023-07-29T09:31:52;100513.84;;;20.63;74.13
74329;BME280;62749;51.982;5.916;2023-07-29T09:34:22;100516.63;;;20.82;72.80
74329;BME280;62749;51.982;5.916;2023-07-29T09:36:51;100514.22;;;20.79;73.29
74329;BME280;62749;51.982;5.916;2023-07-29T09:39:23;100509.00;;;20.97;72.14
74329;BME280;62749;51.982;5.916;2023-07-29T09:41:52;100508.47;;;21.13;71.27
74329;BME280;62749;51.982;5.916;2023-07-29T09:44:25;100503.09;;;21.04;69.84
74329;BME280;62749;51.982;5.916;2023-07-29T09:46:54;100508.88;;;21.09;71.64
74329;BME280;62749;51.982;5.916;2023-07-29T09:49:23;100502.25;;;21.33;70.57
74329;BME280;62749;51.982;5.916;2023-07-29T09:51:55;100500.66;;;21.50;70.46
74329;BME280;62749;51.982;5.916;2023-07-29T09:54:29;100500.28;;;21.44;70.03
74329;BME280;62749;51.982;5.916;2023-07-29T09:56:59;100505.66;;;21.44;71.96
74329;BME280;62749;51.982;5.916;2023-07-29T09:59:33;100505.09;;;21.60;71.85
74329;BME280;62749;51.982;5.916;2023-07-29T10:02:03;100506.94;;;21.60;72.21
74329;BME280;62749;51.982;5.916;2023-07-29T10:04:33;100507.50;;;21.73;71.86
74329;BME280;62749;51.982;5.916;2023-07-29T10:07:04;100508.88;;;21.77;70.65
74329;BME280;62749;51.982;5.916;2023-07-29T10:09:35;100513.84;;;21.72;69.57
74329;BME280;62749;51.982;5.916;2023-07-29T10:12:06;100511.28;;;21.71;71.48
74329;BME280;62749;51.982;5.916;2023-07-29T10:14:39;100511.81;;;21.94;67.94
74329;BME280;62749;51.982;5.916;2023-07-29T10:17:09;100512.38;;;21.98;67.95
74329;BME280;62749;51.982;5.916;2023-07-29T10:19:39;100502.91;;;21.94;69.04
74329;BME280;62749;51.982;5.916;2023-07-29T10:22:11;100492.63;;;22.17;69.05
74329;BME280;62749;51.982;5.916;2023-07-29T10:24:43;100495.88;;;22.58;67.54
74329;BME280;62749;51.982;5.916;2023-07-29T10:27:18;100488.53;;;22.78;65.06
74329;BME280;62749;51.982;5.916;2023-07-29T10:29:54;100502.47;;;22.92;64.90
74329;BME280;62749;51.982;5.916;2023-07-29T10:32:25;100497.53;;;22.87;63.85
74329;BME280;62749;51.982;5.916;2023-07-29T10:34:55;100505.84;;;22.48;64.71
74329;BME280;62749;51.982;5.916;2023-07-29T10:37:24;100514.06;;;22.46;66.09
74329;BME280;62749;51.982;5.916;2023-07-29T10:39:55;100508.91;;;22.25;65.60
74329;BME280;62749;51.982;5.916;2023-07-29T10:42:24;100526.22;;;22.13;66.99
74329;BME280;62749;51.982;5.916;2023-07-29T10:44:56;100511.84;;;22.32;67.33
74329;BME280;62749;51.982;5.916;2023-07-29T10:47:27;100511.44;;;22.64;67.84
74329;BME280;62749;51.982;5.916;2023-07-29T10:49:59;100512.31;;;22.83;65.60
74329;BME280;62749;51.982;5.916;2023-07-29T10:52:40;100509.53;;;22.75;66.53
74329;BME280;62749;51.982;5.916;2023-07-29T10:55:29;100515.75;;;22.75;64.54
74329;BME280;62749;51.982;5.916;2023-07-29T10:58:10;100510.03;;;22.60;64.69
74329;BME280;62749;51.982;5.916;2023-07-29T11:00:45;100504.03;;;22.38;65.80
74329;BME280;62749;51.982;5.916;2023-07-29T11:03:14;100501.03;;;22.42;66.31
74329;BME280;62749;51.982;5.916;2023-07-29T11:05:47;100499.84;;;22.54;66.55
74329;BME280;62749;51.982;5.916;2023-07-29T11:08:22;100510.66;;;22.72;66.43
74329;BME280;62749;51.982;5.916;2023-07-29T11:11:01;100502.31;;;22.93;65.22
74329;BME280;62749;51.982;5.916;2023-07-29T11:13:32;100508.03;;;23.08;64.50
74329;BME280;62749;51.982;5.916;2023-07-29T11:16:06;100504.13;;;23.21;63.94
74329;BME280;62749;51.982;5.916;2023-07-29T11:18:35;100496.00;;;22.85;65.10
74329;BME280;62749;51.982;5.916;2023-07-29T11:21:06;100506.84;;;22.75;64.97
74329;BME280;62749;51.982;5.916;2023-07-29T11:23:36;100509.69;;;22.45;65.35
74329;BME280;62749;51.982;5.916;2023-07-29T11:26:06;100503.75;;;22.42;65.47
74329;BME280;62749;51.982;5.916;2023-07-29T11:28:39;100508.84;;;22.35;65.46
74329;BME280;62749;51.982;5.916;2023-07-29T11:31:11;100507.13;;;22.06;70.83
74329;BME280;62749;51.982;5.916;2023-07-29T11:33:41;100501.50;;;21.80;74.40
74329;BME280;62749;51.982;5.916;2023-07-29T11:36:19;100504.66;;;21.75;76.35
74329;BME280;62749;51.982;5.916;2023-07-29T11:38:50;100498.00;;;21.69;78.31
74329;BME280;62749;51.982;5.916;2023-07-29T11:41:20;100508.59;;;21.71;75.63
74329;BME280;62749;51.982;5.916;2023-07-29T11:43:51;100503.38;;;21.69;74.35
74329;BME280;62749;51.982;5.916;2023-07-29T11:46:23;100502.50;;;21.79;75.68
74329;BME280;62749;51.982;5.916;2023-07-29T11:48:54;100514.13;;;21.69;77.85
74329;BME280;62749;51.982;5.916;2023-07-29T11:51:25;100519.63;;;21.58;74.19
74329;BME280;62749;51.982;5.916;2023-07-29T11:53:55;100507.34;;;21.45;74.72
74329;BME280;62749;51.982;5.916;2023-07-29T11:56:24;100508.88;;;21.48;73.89
74329;BME280;62749;51.982;5.916;2023-07-29T11:58:53;100534.34;;;21.24;76.31
74329;BME280;62749;51.982;5.916;2023-07-29T12:01:26;100525.94;;;20.78;80.06
74329;BME280;62749;51.982;5.916;2023-07-29T12:03:55;100540.34;;;20.46;82.16
74329;BME280;62749;51.982;5.916;2023-07-29T12:06:27;100539.28;;;20.28;85.18
74329;BME280;62749;51.982;5.916;2023-07-29T12:08:58;100542.56;;;20.10;86.25
74329;BME280;62749;51.982;5.916;2023-07-29T12:11:28;100541.53;;;19.80;88.18
74329;BME280;62749;51.982;5.916;2023-07-29T12:13:59;100549.16;;;19.63;88.75
74329;BME280;62749;51.982;5.916;2023-07-29T12:16:31;100549.25;;;19.41;89.31
74329;BME280;62749;51.982;5.916;2023-07-29T12:19:01;100541.72;;;19.35;91.76
74329;BME280;62749;51.982;5.916;2023-07-29T12:21:30;100542.94;;;19.30;94.28
74329;BME280;62749;51.982;5.916;2023-07-29T12:23:59;100535.41;;;19.36;94.33
74329;BME280;62749;51.982;5.916;2023-07-29T12:26:29;100536.56;;;19.43;94.01
74329;BME280;62749;51.982;5.916;2023-07-29T12:28:58;100535.00;;;19.40;95.92
74329;BME280;62749;51.982;5.916;2023-07-29T12:31:33;100533.44;;;19.38;94.91
74329;BME280;62749;51.982;5.916;2023-07-29T12:34:06;100536.50;;;19.33;96.38
74329;BME280;62749;51.982;5.916;2023-07-29T12:36:44;100535.97;;;19.39;96.38
74329;BME280;62749;51.982;5.916;2023-07-29T12:39:22;100537.56;;;19.42;95.80
74329;BME280;62749;51.982;5.916;2023-07-29T12:41:54;100525.84;;;19.43;93.74
74329;BME280;62749;51.982;5.916;2023-07-29T12:44:25;100529.50;;;19.53;94.87
74329;BME280;62749;51.982;5.916;2023-07-29T12:46:57;100538.34;;;19.86;92.88
74329;BME280;62749;51.982;5.916;2023-07-29T12:49:27;100547.75;;;20.02;92.64
74329;BME280;62749;51.982;5.916;2023-07-29T12:51:57;100551.06;;;20.15;92.82
74329;BME280;62749;51.982;5.916;2023-07-29T12:54:27;100558.00;;;20.18;88.67
74329;BME280;62749;51.982;5.916;2023-07-29T12:56:56;100564.34;;;20.17;87.86
74329;BME280;62749;51.982;5.916;2023-07-29T12:59:26;100561.41;;;20.20;89.99
74329;BME280;62749;51.982;5.916;2023-07-29T13:01:57;100563.94;;;20.21;88.07
74329;BME280;62749;51.982;5.916;2023-07-29T13:04:27;100553.97;;;20.33;88.17
74329;BME280;62749;51.982;5.916;2023-07-29T13:06:56;100552.06;;;20.45;86.55
74329;BME280;62749;51.982;5.916;2023-07-29T13:09:26;100546.69;;;20.76;89.71